createdAt,value
2022-08-04T00:01:43.657Z,641.67
2022-08-04T00:04:14.882Z,636.45
2022-08-04T00:06:53.229Z,632.28
2022-08-04T00:09:25.830Z,625.50
2022-08-04T00:11:53.702Z,649.30
2022-08-04T00:14:21.045Z,683.63
2022-08-04T00:16:49.246Z,700.22
2022-08-04T00:19:23.206Z,683.05
2022-08-04T00:21:55.988Z,646.35
2022-08-04T00:24:22.790Z,649.53
2022-08-04T00:26:49.148Z,705.03
2022-08-04T00:29:15.495Z,667.83
2022-08-04T00:31:54.940Z,740.42
2022-08-04T00:34:27.647Z,686.00
2022-08-04T00:36:55.480Z,713.90
2022-08-04T00:39:21.980Z,712.83
2022-08-04T00:41:56.177Z,651.35
2022-08-04T00:47:05.719Z,555.58
2022-08-04T00:49:50.119Z,601.55
2022-08-04T00:52:35.875Z,570.25
2022-08-04T00:55:10.682Z,519.08
2022-08-04T00:57:37.074Z,578.53
2022-08-04T01:00:09.794Z,491.95
2022-08-04T01:02:38.590Z,557.17
2022-08-04T01:05:04.920Z,548.95
2022-08-04T01:07:57.271Z,597.83
2022-08-04T01:10:46.670Z,551.35
2022-08-04T01:13:15.185Z,638.20
2022-08-04T01:15:59.919Z,600.28
2022-08-04T01:18:35.971Z,563.10
2022-08-04T01:21:05.378Z,619.42
2022-08-04T01:23:34.421Z,672.65
2022-08-04T01:26:40.286Z,611.15
2022-08-04T01:29:14.232Z,577.25
2022-08-04T01:31:47.951Z,413.52
2022-08-04T01:34:16.008Z,615.60
2022-08-04T01:36:44.944Z,611.47
2022-08-04T01:39:36.049Z,587.43
2022-08-04T01:42:03.817Z,548.88
2022-08-04T01:44:30.907Z,627.38
2022-08-04T01:46:57.671Z,544.13
2022-08-04T01:49:28.033Z,620.78
2022-08-04T01:51:55.917Z,660.90
2022-08-04T01:54:22.966Z,642.13
2022-08-04T01:56:53.273Z,567.95
2022-08-04T01:59:20.403Z,646.17
2022-08-04T02:01:47.417Z,578.67
2022-08-04T02:04:23.164Z,597.83
2022-08-04T02:06:56.232Z,618.75
2022-08-04T02:09:24.678Z,668.20
2022-08-04T02:12:05.072Z,650.40
2022-08-04T02:14:40.997Z,655.05
2022-08-04T02:17:10.365Z,585.85
2022-08-04T02:19:42.594Z,609.50
2022-08-04T02:22:09.902Z,655.35
2022-08-04T02:24:43.218Z,578.85
2022-08-04T02:27:11.225Z,628.88
2022-08-04T02:29:42.027Z,570.33
2022-08-04T02:32:15.251Z,588.75
2022-08-04T02:35:00.023Z,591.60
2022-08-04T02:37:26.846Z,581.83
2022-08-04T02:39:53.771Z,596.20
2022-08-04T02:42:20.259Z,537.10
2022-08-04T02:44:50.346Z,638.72
2022-08-04T02:47:20.861Z,344.30
2022-08-04T02:49:47.631Z,584.22
2022-08-04T02:52:14.710Z,615.20
2022-08-04T02:54:42.891Z,573.90
2022-08-04T02:57:09.712Z,540.47
2022-08-04T02:59:43.925Z,560.75
2022-08-04T03:02:10.238Z,572.97
2022-08-04T03:04:57.224Z,503.55
2022-08-04T03:07:23.641Z,585.30
2022-08-04T03:10:08.694Z,514.00
2022-08-04T03:12:47.679Z,545.55
2022-08-04T03:15:16.938Z,544.03
2022-08-04T03:18:22.225Z,621.03
2022-08-04T03:21:01.601Z,513.85
2022-08-04T03:23:49.270Z,413.98
2022-08-04T03:26:18.395Z,566.30
2022-08-04T03:29:03.117Z,560.70
2022-08-04T03:31:35.410Z,521.88
2022-08-04T03:34:13.812Z,572.17
2022-08-04T03:36:54.507Z,576.45
2022-08-04T03:39:29.990Z,507.35
2022-08-04T03:42:13.131Z,530.85
2022-08-04T03:45:00.786Z,555.28
2022-08-04T03:47:42.334Z,533.78
2022-08-04T03:50:20.263Z,518.22
2022-08-04T03:53:25.020Z,525.80
2022-08-04T03:56:01.460Z,501.17
2022-08-04T03:58:46.589Z,535.95
2022-08-04T04:01:24.446Z,427.75
2022-08-04T04:03:57.558Z,481.27
2022-08-04T04:06:43.369Z,463.00
2022-08-04T04:09:42.485Z,348.98
2022-08-04T04:12:37.372Z,458.25
2022-08-04T04:15:11.047Z,472.50
2022-08-04T04:17:37.340Z,514.38
2022-08-04T04:20:24.287Z,522.53
2022-08-04T04:22:50.568Z,443.25
2022-08-04T04:25:23.380Z,458.45
2022-08-04T04:27:56.062Z,487.17
2022-08-04T04:30:49.651Z,386.48
2022-08-04T04:33:31.795Z,473.92
2022-08-04T04:36:16.906Z,442.95
2022-08-04T04:39:07.155Z,445.77
2022-08-04T04:41:46.739Z,477.95
2022-08-04T04:44:13.091Z,410.60
2022-08-04T04:46:39.359Z,488.42
2022-08-04T04:49:05.662Z,489.88
2022-08-04T04:51:37.534Z,525.60
2022-08-04T04:54:16.288Z,441.55
2022-08-04T04:56:48.586Z,385.63
2022-08-04T04:59:16.603Z,450.60
2022-08-04T05:02:01.311Z,450.40
2022-08-04T05:04:30.447Z,461.33
2022-08-04T05:07:24.098Z,498.25
2022-08-04T05:09:56.342Z,461.75
2022-08-04T05:14:31.228Z,483.35
2022-08-04T05:15:10.136Z,478.00
2022-08-04T05:17:38.789Z,523.85
2022-08-04T05:20:20.145Z,527.58
2022-08-04T05:22:52.545Z,503.73
2022-08-04T05:25:18.821Z,555.50
2022-08-04T05:28:05.637Z,551.08
2022-08-04T05:30:35.521Z,501.92
2022-08-04T05:33:08.387Z,509.30
2022-08-04T05:35:47.872Z,527.17
2022-08-04T05:38:26.469Z,513.50
2022-08-04T05:40:52.942Z,568.20
2022-08-04T05:43:20.879Z,565.25
2022-08-04T05:45:48.431Z,565.67
2022-08-04T05:48:14.884Z,574.20
2022-08-04T05:50:41.370Z,605.88
2022-08-04T05:53:09.936Z,602.20
2022-08-04T05:55:57.129Z,536.40
2022-08-04T05:58:23.050Z,583.15
2022-08-04T06:00:52.338Z,575.08
2022-08-04T06:03:20.761Z,588.03
2022-08-04T06:05:47.587Z,582.33
2022-08-04T06:08:14.239Z,644.22
2022-08-04T06:10:42.464Z,561.40
2022-08-04T06:13:46.774Z,540.53
2022-08-04T06:15:59.861Z,563.80
2022-08-04T06:19:56.951Z,576.15
2022-08-04T06:21:17.327Z,576.58
2022-08-04T06:23:52.774Z,610.42
2022-08-04T06:26:23.426Z,611.78
2022-08-04T06:28:51.207Z,642.17
2022-08-04T06:32:27.333Z,609.63
2022-08-04T06:34:29.878Z,583.53
2022-08-04T06:36:57.306Z,572.65
2022-08-04T06:39:24.981Z,624.20
2022-08-04T06:42:19.278Z,631.65
2022-08-04T06:44:40.534Z,615.10
2022-08-04T06:47:07.290Z,603.92
2022-08-04T06:49:55.086Z,607.78
2022-08-04T06:52:21.493Z,614.35
2022-08-04T06:54:48.826Z,613.08
2022-08-04T06:57:16.621Z,466.23
2022-08-04T06:59:47.652Z,612.05
2022-08-04T07:02:18.424Z,605.42
2022-08-04T07:04:44.860Z,636.47
2022-08-04T07:07:11.719Z,678.13
2022-08-04T07:09:38.660Z,634.78
2022-08-04T07:12:05.846Z,545.20
2022-08-04T07:14:35.979Z,605.55
2022-08-04T07:17:05.844Z,562.33
2022-08-04T07:19:33.046Z,422.70
2022-08-04T07:22:17.826Z,600.65
2022-08-04T07:24:53.966Z,557.53
2022-08-04T07:27:48.393Z,449.60
2022-08-04T07:30:10.879Z,498.10
2022-08-04T07:32:37.717Z,498.33
2022-08-04T07:35:05.800Z,511.25
2022-08-04T07:37:38.853Z,560.15
2022-08-04T07:40:06.075Z,496.98
2022-08-04T07:42:32.484Z,395.02
2022-08-04T07:44:59.454Z,474.77
2022-08-04T07:47:27.515Z,554.35
2022-08-04T07:49:57.657Z,518.80
2022-08-04T07:52:24.998Z,524.80
2022-08-04T07:54:51.561Z,394.73
2022-08-04T07:57:19.691Z,472.38
2022-08-04T08:00:05.672Z,476.60
2022-08-04T08:02:33.612Z,370.60
2022-08-04T08:05:00.245Z,445.02
2022-08-04T08:07:26.695Z,537.65
2022-08-04T08:09:53.036Z,440.08
2022-08-04T08:12:35.300Z,411.85
2022-08-04T08:15:10.430Z,486.52
2022-08-04T08:17:58.322Z,577.38
2022-08-04T08:20:29.209Z,379.15
2022-08-04T08:22:56.523Z,485.98
2022-08-04T08:25:22.804Z,271.55
2022-08-04T08:27:56.222Z,463.63
2022-08-04T08:30:23.861Z,407.75
2022-08-04T08:32:50.459Z,459.10
2022-08-04T08:35:17.397Z,449.48
2022-08-04T08:37:47.623Z,421.00
2022-08-04T08:40:40.162Z,354.35
2022-08-04T08:44:06.196Z,343.23
2022-08-04T08:46:48.004Z,230.15
2022-08-04T08:50:02.630Z,445.45
2022-08-04T08:52:13.013Z,452.95
2022-08-04T08:54:47.367Z,195.07
2022-08-04T08:57:32.912Z,319.75
2022-08-04T09:00:07.319Z,303.20
2022-08-04T09:02:42.708Z,213.52
2022-08-04T09:05:18.317Z,378.33
2022-08-04T09:08:03.303Z,372.30
2022-08-04T09:10:50.717Z,274.83
2022-08-04T09:13:21.816Z,344.05
2022-08-04T09:15:51.153Z,241.20
2022-08-04T09:18:23.974Z,511.90
2022-08-04T09:20:54.029Z,368.77
2022-08-04T09:23:28.319Z,348.73
2022-08-04T09:26:06.571Z,409.65
2022-08-04T09:28:53.639Z,376.02
2022-08-04T09:31:23.150Z,431.13
2022-08-04T09:33:55.921Z,514.95
2022-08-04T09:36:40.746Z,528.05
2022-08-04T09:39:24.167Z,402.85
2022-08-04T09:41:59.710Z,510.92
2022-08-04T09:44:51.118Z,509.55
2022-08-04T09:47:20.614Z,383.90
2022-08-04T09:49:59.122Z,380.40
2022-08-04T09:52:34.535Z,358.35
2022-08-04T09:55:33.878Z,580.33
2022-08-04T09:58:00.154Z,397.77
2022-08-04T10:00:40.457Z,502.20
2022-08-04T10:03:10.125Z,491.33
2022-08-04T10:06:00.044Z,497.00
2022-08-04T10:08:37.361Z,666.17
2022-08-04T10:11:09.328Z,596.03
2022-08-04T10:13:58.714Z,684.28
2022-08-04T10:16:45.919Z,645.72
2022-08-04T10:19:18.729Z,264.73
2022-08-04T10:21:59.981Z,484.65
2022-08-04T10:24:49.646Z,590.13
2022-08-04T10:27:45.135Z,627.60
2022-08-04T10:30:12.472Z,681.10
2022-08-04T10:32:57.408Z,642.65
2022-08-04T10:35:26.673Z,672.38
2022-08-04T10:38:01.640Z,691.40
2022-08-04T10:40:36.335Z,732.03
2022-08-04T10:43:22.432Z,695.85
2022-08-04T10:45:57.725Z,675.38
2022-08-04T10:48:34.718Z,701.47
2022-08-04T10:51:11.721Z,737.60
2022-08-04T10:53:38.803Z,707.95
2022-08-04T10:56:15.337Z,711.03
2022-08-04T10:58:52.938Z,686.30
2022-08-04T11:01:50.598Z,697.28
2022-08-04T11:04:27.083Z,709.10
2022-08-04T11:06:54.999Z,727.37
2022-08-04T11:09:22.488Z,699.90
2022-08-04T11:11:57.210Z,694.58
2022-08-04T11:14:31.690Z,701.63
2022-08-04T11:17:01.490Z,730.65
2022-08-04T11:19:44.826Z,702.60
2022-08-04T11:22:24.773Z,699.38
2022-08-04T11:25:10.299Z,749.53
2022-08-04T11:27:53.650Z,703.53
2022-08-04T11:30:20.049Z,744.15
2022-08-04T11:32:46.373Z,721.40
2022-08-04T11:35:16.983Z,664.88
2022-08-04T11:37:50.063Z,693.90
2022-08-04T11:40:22.762Z,689.20
2022-08-04T11:42:53.308Z,620.15
2022-08-04T11:45:24.605Z,607.58
2022-08-04T11:48:04.605Z,540.47
2022-08-04T11:50:45.026Z,238.73
2022-08-04T11:53:16.977Z,239.70
2022-08-04T11:56:08.140Z,149.88
2022-08-04T11:58:32.389Z,110.30
2022-08-04T12:01:21.960Z,66.90
2022-08-04T12:04:06.796Z,79.70
2022-08-04T12:07:04.650Z,79.90
2022-08-04T12:09:44.443Z,63.80
2022-08-04T12:12:16.008Z,31.75
2022-08-04T12:15:02.560Z,124.32
2022-08-04T12:17:37.067Z,47.25
2022-08-04T12:20:38.233Z,20.95
2022-08-04T12:23:14.754Z,17.40
2022-08-04T12:25:45.223Z,9.90
2022-08-04T12:28:22.395Z,6.15
2022-08-04T12:31:00.106Z,6.88
2022-08-04T12:34:02.743Z,6.68
2022-08-04T12:36:34.583Z,5.28
2022-08-04T12:39:17.805Z,5.18
2022-08-04T12:41:58.532Z,4.38
2022-08-04T12:44:33.458Z,4.03
2022-08-04T12:47:28.152Z,4.57
2022-08-04T12:49:59.031Z,4.75
2022-08-04T12:52:51.790Z,4.25
2022-08-04T12:55:14.751Z,4.53
2022-08-04T12:57:42.487Z,4.10
2022-08-04T13:00:09.666Z,4.57
2022-08-04T13:02:44.745Z,3.78
2022-08-04T13:05:16.914Z,4.97
2022-08-04T13:07:47.575Z,5.28
2022-08-04T13:10:18.227Z,5.22
2022-08-04T13:12:51.247Z,5.13
2022-08-04T13:15:19.077Z,5.10
2022-08-04T13:17:53.864Z,4.75
2022-08-04T13:20:25.142Z,3.80
2022-08-04T13:22:58.596Z,3.15
2022-08-04T13:26:44.301Z,2.83
2022-08-04T13:28:15.960Z,3.60
2022-08-04T13:30:45.145Z,3.17
2022-08-04T13:33:13.330Z,2.90
2022-08-04T13:35:54.522Z,3.88
2022-08-04T13:38:24.296Z,3.00
2022-08-04T13:40:50.850Z,3.10
2022-08-04T13:44:18.948Z,3.40
2022-08-04T13:46:28.003Z,3.83
2022-08-04T13:49:23.613Z,3.45
2022-08-04T13:51:57.011Z,3.50
2022-08-04T13:54:25.907Z,3.25
2022-08-04T13:56:55.042Z,3.53
2022-08-04T13:59:24.864Z,2.85
2022-08-04T14:02:02.792Z,3.53
2022-08-04T14:04:31.343Z,3.35
2022-08-04T14:07:26.541Z,3.15
2022-08-04T14:10:02.921Z,3.80
2022-08-04T14:12:38.119Z,3.45
2022-08-04T14:15:29.559Z,4.30
2022-08-04T14:18:20.971Z,4.03
2022-08-04T14:21:07.589Z,3.20
2022-08-04T14:23:47.773Z,4.10
2022-08-04T14:26:32.789Z,3.95
2022-08-04T14:29:26.500Z,4.10
2022-08-04T14:32:00.114Z,3.10
2022-08-04T14:34:30.303Z,2.78
2022-08-04T14:37:16.722Z,3.22
2022-08-04T14:40:18.136Z,3.70
2022-08-04T14:42:40.309Z,3.83
2022-08-04T14:45:07.009Z,3.88
2022-08-04T14:47:52.587Z,3.83
2022-08-04T14:50:19.753Z,3.47
2022-08-04T14:52:46.083Z,4.38
2022-08-04T14:55:20.240Z,3.95
2022-08-04T14:58:36.870Z,3.30
2022-08-04T15:00:35.223Z,2.78
2022-08-04T15:03:03.393Z,3.45
2022-08-04T15:06:00.318Z,3.22
2022-08-04T15:08:16.987Z,3.42
2022-08-04T15:10:44.254Z,3.08
2022-08-04T15:13:12.550Z,4.03
2022-08-04T15:15:39.716Z,3.60
2022-08-04T15:18:12.364Z,4.75
2022-08-04T15:20:39.315Z,3.70
2022-08-04T15:23:10.805Z,3.47
2022-08-04T15:25:47.814Z,4.07
2022-08-04T15:28:19.176Z,4.75
2022-08-04T15:30:46.729Z,3.97
2022-08-04T15:33:23.951Z,4.00
2022-08-04T15:36:09.110Z,5.07
2022-08-04T15:39:01.906Z,3.55
2022-08-04T15:41:33.708Z,4.30
2022-08-04T15:44:17.859Z,3.30
2022-08-04T15:47:04.125Z,3.83
2022-08-04T15:49:30.693Z,4.50
2022-08-04T15:52:04.292Z,3.95
2022-08-04T15:54:38.435Z,5.70
2022-08-04T15:57:05.695Z,7.05
2022-08-04T15:59:50.746Z,5.25
2022-08-04T16:02:29.463Z,4.60
2022-08-04T16:05:29.877Z,4.10
2022-08-04T16:07:59.935Z,4.13
2022-08-04T16:10:35.159Z,4.65
2022-08-04T16:13:05.836Z,4.07
2022-08-04T16:15:44.088Z,3.95
2022-08-04T16:18:25.807Z,3.83
2022-08-04T16:20:57.614Z,4.40
2022-08-04T16:23:52.926Z,4.20
2022-08-04T16:26:45.030Z,3.78
2022-08-04T16:29:30.570Z,3.22
2022-08-04T16:32:06.353Z,3.47
2022-08-04T16:34:54.486Z,3.47
2022-08-04T16:37:42.515Z,3.10
2022-08-04T16:40:35.146Z,3.22
2022-08-04T16:43:02.551Z,3.40
2022-08-04T16:45:47.117Z,3.47
2022-08-04T16:48:14.208Z,2.85
2022-08-04T16:50:48.549Z,3.50
2022-08-04T16:53:51.534Z,4.28
2022-08-04T16:56:03.962Z,3.90
2022-08-04T16:58:34.023Z,22.33
2022-08-04T17:01:07.903Z,3.88
2022-08-04T17:03:39.557Z,3.10
2022-08-04T17:06:07.015Z,4.43
2022-08-04T17:08:35.200Z,3.72
2022-08-04T17:11:01.609Z,3.00
2022-08-04T17:14:01.167Z,3.05
2022-08-04T17:16:18.271Z,3.53
2022-08-04T17:18:49.560Z,3.60
2022-08-04T17:21:19.803Z,3.67
2022-08-04T17:24:16.543Z,3.30
2022-08-04T17:26:40.227Z,3.45
2022-08-04T17:29:08.285Z,3.97
2022-08-04T17:31:36.077Z,3.38
2022-08-04T17:34:13.831Z,3.60
2022-08-04T17:36:42.264Z,3.25
2022-08-04T17:39:16.320Z,3.90
2022-08-04T17:41:43.406Z,3.45
2022-08-04T17:44:16.607Z,3.50
2022-08-04T17:46:45.557Z,3.47
2022-08-04T17:49:16.815Z,3.20
2022-08-04T17:52:02.487Z,3.75
2022-08-04T17:54:36.586Z,3.38
2022-08-04T17:57:19.469Z,3.20
2022-08-04T17:59:56.080Z,3.00
2022-08-04T18:02:32.266Z,3.65
2022-08-04T18:05:07.163Z,3.38
2022-08-04T18:08:39.248Z,3.55
2022-08-04T18:10:39.759Z,2.83
2022-08-04T18:13:20.963Z,3.80
2022-08-04T18:15:47.485Z,3.10
2022-08-04T18:18:20.975Z,3.30
2022-08-04T18:20:50.193Z,3.47
2022-08-04T18:23:16.976Z,3.15
2022-08-04T18:25:51.486Z,3.08
2022-08-04T18:30:55.423Z,2.95
2022-08-04T18:36:34.198Z,3.30
2022-08-04T18:38:58.440Z,3.22
2022-08-04T18:41:26.509Z,3.53
2022-08-04T18:43:55.653Z,3.13
2022-08-04T18:46:27.521Z,3.13
2022-08-04T18:48:57.647Z,3.10
2022-08-04T18:51:25.090Z,3.38
2022-08-04T18:53:58.959Z,3.72
2022-08-04T18:56:33.064Z,3.50
2022-08-04T18:59:04.058Z,3.10
2022-08-04T19:02:09.189Z,2.95
2022-08-04T19:04:33.555Z,3.60
2022-08-04T19:07:23.450Z,3.03
2022-08-04T19:09:51.948Z,3.22
2022-08-04T19:12:26.860Z,3.25
2022-08-04T19:14:58.394Z,3.45
2022-08-04T19:17:52.780Z,3.10
2022-08-04T19:20:25.642Z,3.00
2022-08-04T19:24:10.357Z,3.15
2022-08-04T19:25:58.873Z,4.03
2022-08-04T19:28:28.145Z,4.13
2022-08-04T19:30:57.383Z,3.28
2022-08-04T19:33:25.105Z,2.92
2022-08-04T19:35:51.921Z,3.50
2022-08-04T19:38:18.934Z,3.20
2022-08-04T19:40:52.520Z,3.67
2022-08-04T19:43:20.710Z,3.40
2022-08-04T19:45:50.203Z,3.20
2022-08-04T19:48:19.534Z,3.00
2022-08-04T19:50:46.634Z,3.28
2022-08-04T19:53:19.507Z,2.83
2022-08-04T19:55:49.929Z,2.78
2022-08-04T19:58:16.892Z,3.10
2022-08-04T20:00:44.848Z,4.07
2022-08-04T20:03:20.455Z,3.05
2022-08-04T20:05:53.826Z,3.03
2022-08-04T20:08:23.689Z,3.92
2022-08-04T20:13:38.600Z,3.08
2022-08-04T20:16:28.219Z,3.45
2022-08-04T20:18:57.082Z,3.72
2022-08-04T20:21:36.765Z,3.47
2022-08-04T20:24:39.201Z,2.85
2022-08-04T20:26:59.707Z,2.80
2022-08-04T20:29:40.094Z,2.33
2022-08-04T20:32:09.784Z,2.63
2022-08-04T20:34:36.472Z,2.95
2022-08-04T20:37:02.781Z,2.58
2022-08-04T20:39:30.212Z,3.05
2022-08-04T20:41:56.628Z,2.85
2022-08-04T20:44:24.288Z,3.28
2022-08-04T20:46:50.832Z,3.00
2022-08-04T20:49:17.142Z,2.60
2022-08-04T20:51:43.961Z,3.60
2022-08-04T20:54:16.520Z,3.30
2022-08-04T20:56:44.957Z,4.20
2022-08-04T20:59:17.729Z,3.28
2022-08-04T21:01:45.502Z,3.40
2022-08-04T21:04:34.167Z,2.95
2022-08-04T21:07:01.447Z,3.42
2022-08-04T21:09:38.300Z,4.72
2022-08-04T21:12:09.734Z,4.00
2022-08-04T21:14:36.229Z,7.75
2022-08-04T21:17:03.973Z,6.57
2022-08-04T21:19:33.759Z,5.43
2022-08-04T21:22:04.774Z,4.75
2022-08-04T21:24:31.098Z,10.88
2022-08-04T21:26:57.441Z,12.13
2022-08-04T21:29:34.978Z,13.65
2022-08-04T21:32:03.786Z,13.65
2022-08-04T21:34:37.874Z,8.75
2022-08-04T21:37:05.269Z,5.20
2022-08-04T21:39:32.657Z,4.45
2022-08-04T21:42:28.178Z,5.60
2022-08-04T21:44:45.522Z,5.18
2022-08-04T21:47:19.379Z,5.85
2022-08-04T21:49:55.970Z,5.07
2022-08-04T21:52:23.346Z,4.93
2022-08-04T21:54:49.660Z,4.22
2022-08-04T21:57:24.852Z,4.55
2022-08-04T21:59:51.878Z,4.63
2022-08-04T22:02:18.333Z,3.28
2022-08-04T22:04:44.782Z,3.33
2022-08-04T22:07:11.084Z,3.35
2022-08-04T22:12:23.795Z,4.07
2022-08-04T22:14:50.475Z,3.38
2022-08-04T22:17:24.531Z,3.70
2022-08-04T22:19:55.354Z,3.78
2022-08-04T22:22:25.272Z,3.38
2022-08-04T22:24:53.519Z,3.58
2022-08-04T22:27:38.711Z,3.83
2022-08-04T22:30:09.248Z,3.85
2022-08-04T22:32:43.025Z,3.10
2022-08-04T22:35:36.545Z,4.88
2022-08-04T22:38:06.360Z,4.18
2022-08-04T22:40:41.803Z,3.80
2022-08-04T22:43:32.227Z,3.65
2022-08-04T22:46:01.992Z,3.95
2022-08-04T22:48:32.069Z,4.13
2022-08-04T22:50:58.751Z,4.57
2022-08-04T22:53:25.118Z,4.82
2022-08-04T22:56:07.009Z,4.40
2022-08-04T22:58:40.166Z,4.25
2022-08-04T23:01:06.888Z,4.35
2022-08-04T23:03:37.500Z,4.45
2022-08-04T23:06:10.574Z,5.15
2022-08-04T23:08:37.358Z,4.88
2022-08-04T23:11:06.977Z,4.70
2022-08-04T23:13:33.290Z,4.40
2022-08-04T23:16:03.229Z,3.65
2022-08-04T23:18:29.799Z,3.92
2022-08-04T23:20:56.098Z,4.72
2022-08-04T23:23:22.430Z,4.25
2022-08-04T23:26:08.671Z,4.30
2022-08-04T23:28:35.762Z,4.57
2022-08-04T23:31:02.973Z,4.80
2022-08-04T23:33:50.825Z,4.25
2022-08-04T23:36:15.625Z,4.30
2022-08-04T23:38:42.260Z,4.03
2022-08-04T23:41:13.573Z,5.07
2022-08-04T23:43:55.410Z,4.45
2022-08-04T23:46:22.263Z,4.13
2022-08-04T23:48:48.593Z,4.78
2022-08-04T23:51:15.706Z,4.35
2022-08-04T23:54:01.857Z,4.32
2022-08-04T23:56:29.247Z,4.75
2022-08-04T23:58:55.886Z,3.92
